ADDS METAR Data INFO
IDs: Format: Raw Decoded Include TAF

Data at: 2319 UTC 15 Jul 2018

KAFP 152255Z AUTO 16005KT 10SM BKN065 OVC100 32/19 A2998 RMK AO2 T03160193
KAFP 152235Z AUTO 16003KT 10SM BKN065 BKN100 31/20 A2998 RMK AO2 T03140202
KAFP 152215Z AUTO 12004KT 10SM BKN065 BKN100 31/20 A2998 RMK AO2 T03140196
KAFP 152155Z AUTO 16003KT 10SM SCT065 BKN110 32/20 A2998 RMK AO2 T03150199
KAFP 152135Z AUTO 15003KT 10SM SCT065 32/19 A2998 RMK AO2 T03200193
KAFP 152115Z AUTO 16003KT 10SM SCT065 SCT100 32/19 A2999 RMK AO2 T03210192
KAFP 152055Z AUTO 16004KT 10SM SCT055 BKN100 33/19 A2999 RMK AO2 T03270188
KAFP 152035Z AUTO 00000KT 10SM SCT055 BKN090 33/18 A3000 RMK AO2 T03290183
KAFP 152015Z AUTO 16006KT 10SM SCT055 SCT080 34/19 A3000 RMK AO2 T03350190
KAFP 151955Z AUTO 20006KT 10SM SCT055 33/20 A3001 RMK AO2 T03340199
KAFP 151935Z AUTO 20005KT 7SM SCT065 33/18 A3002 RMK AO2 T03280183
KAFP 151915Z AUTO 15006KT 120V220 10SM SCT060 SCT065 SCT075 33/20 A3003 RMK AO2 T03300196
KAFP 151855Z AUTO 15005KT 10SM SCT075 34/21 A3003 RMK AO2 T03350206
KAFP 151835Z AUTO 17009KT 10SM CLR 33/20 A3004 RMK AO2 T03300204
KAFP 151815Z AUTO 15005KT 10SM CLR 33/20 A3004 RMK AO2 T03250204
KAFP 151755Z AUTO 19006KT 10SM SCT050 SCT065 33/21 A3005 RMK AO2 T03250211 10327 20227
KAFP 151735Z AUTO 17006KT 10SM SCT050 33/21 A3005 RMK AO2 T03270205
KAFP 151715Z AUTO 20003KT 10SM CLR 32/20 A3006 RMK AO2 T03180198
KAFP 151655Z AUTO 00000KT 10SM SCT080 30/20 A3007 RMK AO2 T03010202
KAFP 151635Z AUTO 14004KT 10SM SCT039 SCT055 32/21 A3007 RMK AO2 T03160206
KAFP 151615Z AUTO 00000KT 10SM SCT039 SCT045 31/21 A3008 RMK AO2 T03140210
KAFP 151555Z AUTO 00000KT 10SM CLR 30/21 A3008 RMK AO2 T03000212
KAFP 151535Z AUTO 25003KT 10SM CLR 30/21 A3009 RMK AO2 T03020211
KAFP 151515Z AUTO 00000KT 10SM SCT028 SCT034 30/21 A3009 RMK AO2 T02970214
KAFP 151455Z AUTO 00000KT 10SM CLR 29/22 A3010 RMK AO2 T02890217
KAFP 151435Z AUTO 22005KT 10SM CLR 29/22 A3010 RMK AO2 T02860215
KAFP 151415Z AUTO 21005KT 10SM CLR 29/21 A3011 RMK AO2 T02850213
KAFP 151355Z AUTO 25003KT 10SM CLR 28/21 A3011 RMK AO2 T02760213
KAFP 151335Z AUTO 23004KT 10SM CLR 27/21 A3012 RMK AO2 T02700212
KAFP 151315Z AUTO 22003KT 10SM CLR 27/22 A3012 RMK AO2 T02650216
KAFP 151255Z AUTO 22004KT 10SM CLR 26/22 A3012 RMK AO2 T02550215
KAFP 151235Z AUTO 20003KT 10SM CLR 24/21 A3012 RMK AO2 T02440212
KAFP 151215Z AUTO 00000KT 10SM SCT065 23/21 A3012 RMK AO2 T02330209
KAFP 151155Z AUTO 00000KT 10SM SCT065 23/21 A3012 RMK AO2 T02260206 10226 20203
KAFP 151135Z AUTO 00000KT 10SM SCT065 22/21 A3011 RMK AO2 T02220205
KAFP 151115Z AUTO 00000KT 7SM CLR 21/20 A3011 RMK AO2 T02070195
KAFP 151055Z AUTO 00000KT 10SM CLR 21/19 A3010 RMK AO2 T02050190
KAFP 151035Z AUTO 00000KT 10SM CLR 20/19 A3011 RMK AO2 T02030186
KAFP 151015Z AUTO 00000KT 10SM CLR 21/20 A3010 RMK AO2 T02100195
KAFP 150955Z AUTO 00000KT 10SM CLR 21/19 A3009 RMK AO2 T02070192
KAFP 150935Z AUTO 00000KT 10SM CLR 21/19 A3008 RMK AO2 T02050191
KAFP 150915Z AUTO 00000KT 10SM CLR 21/19 A3008 RMK AO2 T02100193
KAFP 150855Z AUTO 00000KT 10SM CLR 21/20 A3008 RMK AO2 T02140197
KAFP 150835Z AUTO 00000KT 10SM CLR 21/20 A3008 RMK AO2 T02120196
KAFP 150815Z AUTO 00000KT 10SM CLR 21/20 A3008 RMK AO2 T02100195
KAFP 150755Z AUTO 00000KT 10SM CLR 21/19 A3009 RMK AO2 T02080192
KAFP 150735Z AUTO 00000KT 10SM CLR 21/20 A3009 RMK AO2 T02140195
KAFP 150715Z AUTO 00000KT 10SM CLR 22/20 A3009 RMK AO2 T02190196
KAFP 150655Z AUTO 00000KT 10SM CLR 22/20 A3009 RMK AO2 T02200196
KAFP 150635Z AUTO 00000KT 10SM SCT065 22/20 A3010 RMK AO2 T02210197
KAFP 150615Z AUTO 13003KT 10SM SCT065 23/20 A3011 RMK AO2 T02250197
KAFP 150555Z AUTO 00000KT 10SM SCT065 23/20 A3011 RMK AO2 T02260196 10285 20226 403300187
KAFP 150535Z AUTO 00000KT 10SM SCT065 23/20 A3011 RMK AO2 T02330197
KAFP 150515Z AUTO 17003KT 10SM CLR 24/20 A3011 RMK AO2 T02420197
KAFP 150455Z AUTO 00000KT 10SM CLR 24/20 A3011 RMK AO2 T02420197
KAFP 150435Z AUTO 17004KT 10SM CLR 24/20 A3011 RMK AO2 T02430196
KAFP 150415Z AUTO 17004KT 10SM CLR 25/19 A3011 RMK AO2 T02450194
KAFP 150355Z AUTO 16006KT 10SM SCT070 25/19 A3012 RMK AO2 T02480190
KAFP 150335Z AUTO 15006KT 10SM SCT070 25/19 A3012 RMK AO2 T02500185
KAFP 150315Z AUTO 14005KT 10SM SCT070 SCT085 24/18 A3012 RMK AO2 T02400183
KAFP 150255Z AUTO 00000KT 10SM BKN070 OVC085 25/19 A3011 RMK AO2 T02480185
KAFP 150235Z AUTO 00000KT 10SM BKN070 BKN080 25/19 A3011 RMK AO2 T02450188
KAFP 150215Z AUTO 00000KT 10SM BKN080 26/18 A3011 RMK AO2 T02560181
KAFP 150155Z AUTO 00000KT 10SM SCT080 26/19 A3010 RMK AO2 T02550185
KAFP 150135Z AUTO 00000KT 10SM OVC080 26/19 A3009 RMK AO2 T02580186
KAFP 150115Z AUTO 00000KT 10SM BKN080 27/19 A3009 RMK AO2 T02650185
KAFP 150055Z AUTO 00000KT 10SM BKN080 27/19 A3008 RMK AO2 T02650185
KAFP 150035Z AUTO 16003KT 10SM CLR 27/18 A3008 RMK AO2 T02730177
KAFP 150015Z AUTO 14003KT 10SM CLR 28/18 A3007 RMK AO2 T02800179
KAFP 142355Z AUTO 14004KT 10SM CLR 29/18 A3007 RMK AO2 T02860180 10330 20286
KAFP 142335Z AUTO 14005KT 10SM SCT070 29/18 A3007 RMK AO2 T02940175
KAFP 142315Z AUTO 15005KT 10SM CLR 31/17 A3006 RMK AO2 T03050172
KAFP 142255Z AUTO 12005KT 10SM CLR 32/15 A3006 RMK AO2 T03150154
KAFP 142235Z AUTO 13005KT 10SM CLR 32/16 A3006 RMK AO2 T03180158
KAFP 142215Z AUTO 00000KT 10SM CLR 32/16 A3007 RMK AO2 T03230156
KAFP 142155Z AUTO 06006KT 10SM SCT070 32/16 A3008 RMK AO2 T03220163
KAFP 142135Z AUTO 08006KT 10SM SCT070 33/16 A3008 RMK AO2 T03260162
KAFP 142115Z AUTO 00000KT 10SM CLR 32/16 A3008 RMK AO2 T03160162
KAFP 142055Z AUTO 09005KT 10SM SCT060 33/17 A3009 RMK AO2 T03270168
KAFP 142035Z AUTO 17003KT 10SM CLR 32/17 A3009 RMK AO2 T03200171
KAFP 142015Z AUTO 00000KT 10SM CLR 31/17 A3010 RMK AO2 T03140167
KAFP 141955Z AUTO 00000KT 10SM SCT055 32/17 A3011 RMK AO2 T03160167
KAFP 141935Z AUTO 06003KT 10SM SCT055 SCT120 32/17 A3011 RMK AO2 T03220168
KAFP 141915Z AUTO 28004KT 10SM SCT050 32/18 A3012 RMK AO2 T03200176
KAFP 141855Z AUTO 07003KT 10SM BKN050 BKN065 BKN075 31/17 A3013 RMK AO2 T03070165
KAFP 141835Z AUTO 09004KT 10SM SCT050 BKN075 32/18 A3013 RMK AO2 T03180178
KAFP 141815Z AUTO 00000KT 10SM SCT065 SCT075 31/18 A3014 RMK AO2 T03070177
KAFP 141755Z AUTO 14004KT 10SM SCT047 SCT065 SCT075 31/18 A3014 RMK AO2 T03050177 10312 20216
KAFP 141735Z AUTO 16003KT 10SM SCT047 SCT065 31/18 A3014 RMK AO2 T03050182
KAFP 141715Z AUTO 03004KT 10SM CLR 31/19 A3015 RMK AO2 T03060185
KAFP 141655Z AUTO 00000KT 10SM CLR 30/19 A3015 RMK AO2 T03030186
KAFP 141635Z AUTO 00000KT 10SM SCT040 30/20 A3016 RMK AO2 T02980197
KAFP 141615Z AUTO 07004KT 10SM SCT038 SCT044 SCT050 29/20 A3016 RMK AO2 T02930195
KAFP 141555Z AUTO 31004KT 10SM SCT034 SCT042 SCT050 29/20 A3017 RMK AO2 T02940203
KAFP 141535Z AUTO 01006KT 10SM SCT041 28/20 A3017 RMK AO2 T02800198
KAFP 141515Z AUTO 03004KT 10SM CLR 28/20 A3017 RMK AO2 T02840197
KAFP 141455Z AUTO 00000KT 10SM CLR 28/20 A3018 RMK AO2 T02770203
KAFP 141435Z AUTO 05006KT 10SM CLR 28/20 A3018 RMK AO2 T02750198
KAFP 141415Z AUTO 36003KT 10SM CLR 27/20 A3018 RMK AO2 T02670196
KAFP 141355Z AUTO 00000KT 10SM CLR 26/19 A3018 RMK AO2 T02600194
KAFP 141335Z AUTO 07004KT 10SM CLR 26/20 A3018 RMK AO2 T02580197
KAFP 141315Z AUTO 07003KT 10SM CLR 25/20 A3018 RMK AO2 T02500196
KAFP 141255Z AUTO 09004KT 10SM CLR 25/19 A3018 RMK AO2 T02460194
KAFP 141235Z AUTO 08003KT 10SM CLR 24/20 A3017 RMK AO2 T02350197
KAFP 141215Z AUTO 04003KT 10SM CLR 23/20 A3017 RMK AO2 T02250198
KAFP 141155Z AUTO 00000KT 10SM CLR 22/19 A3016 RMK AO2 T02160194 10216 20187
KAFP 141135Z AUTO 00000KT 7SM CLR 21/19 A3016 RMK AO2 T02070190